Time;durP1;ratioP1;P1;durP2;ratioP2;P2;SDS_P1;SDS_P2;PMS_P1;PMS_P2;Temp;Humidity;BMP_temperature;BMP_pressure;BME280_temperature;BME280_humidity;BME280_pressure;Samples;Min_cycle;Max_cycle;Signal;HPM_P1;HPM_P2
2021/08/04 00:00:44;;;;;;;7.82;6.50;;;;;;;12.48;86.68;101307.72;10460604;28;20041;-67
2021/08/04 00:05:46;;;;;;;5.72;5.13;;;;;;;12.48;85.98;101304.25;10460657;28;20053;-66
2021/08/04 00:10:49;;;;;;;5.78;4.68;;;;;;;12.56;85.92;101307.28;10460239;28;20053;-67
2021/08/04 00:15:51;;;;;;;8.60;6.00;;;;;;;12.35;86.62;101320.69;10459867;28;20503;-67
2021/08/04 00:20:54;;;;;;;6.97;5.85;;;;;;;12.35;86.27;101310.19;10459814;28;20049;-66
2021/08/04 00:25:57;;;;;;;7.82;5.03;;;;;;;12.26;85.95;101315.97;10458786;28;20053;-65
2021/08/04 00:30:59;;;;;;;10.70;6.47;;;;;;;12.22;85.85;101315.31;10459805;28;20045;-67
2021/08/04 00:36:01;;;;;;;10.10;6.75;;;;;;;12.25;86.00;101314.25;10459227;28;20493;-68
2021/08/04 00:41:04;;;;;;;9.02;7.55;;;;;;;12.25;86.19;101309.00;10459300;28;20055;-67
2021/08/04 00:46:06;;;;;;;6.32;5.72;;;;;;;12.16;87.16;101309.53;10458502;28;20057;-67
2021/08/04 00:51:09;;;;;;;8.90;6.55;;;;;;;12.08;86.12;101299.47;10459151;28;20052;-66
2021/08/04 00:56:11;;;;;;;8.75;6.93;;;;;;;12.05;86.73;101303.13;10457115;28;20044;-67
2021/08/04 01:01:20;;;;;;;9.45;6.70;;;;;;;12.02;86.50;101308.53;10458970;28;20045;-64
2021/08/04 01:06:39;;;;;;;10.95;6.22;;;;;;;12.00;87.51;101312.16;10457847;28;20067;-66
2021/08/04 01:11:47;;;;;;;7.47;6.55;;;;;;;11.99;86.90;101307.84;10457949;28;20393;-66
2021/08/04 01:16:52;;;;;;;12.38;6.82;;;;;;;12.01;86.39;101306.00;10456393;28;20052;-67
2021/08/04 01:22:32;;;;;;;10.10;6.35;;;;;;;12.02;86.02;101307.66;10457718;28;20091;-66
2021/08/04 01:27:35;;;;;;;10.63;6.40;;;;;;;11.94;86.84;101309.91;10457037;28;20049;-65
2021/08/04 01:32:38;;;;;;;8.80;6.50;;;;;;;11.89;87.12;101310.09;10456180;28;20494;-65
2021/08/04 01:37:42;;;;;;;9.05;7.78;;;;;;;11.83;87.49;101306.03;10457018;28;20538;-68
2021/08/04 01:42:45;;;;;;;7.40;5.72;;;;;;;11.91;85.77;101297.78;10455824;28;20434;-65
2021/08/04 01:47:49;;;;;;;6.85;6.22;;;;;;;11.83;85.97;101300.78;10456189;28;20052;-67
2021/08/04 01:52:51;;;;;;;8.85;6.18;;;;;;;11.81;86.52;101302.63;10455230;28;20060;-66
2021/08/04 01:57:54;;;;;;;8.18;7.15;;;;;;;11.75;86.95;101310.00;10455340;28;20048;-66
2021/08/04 02:02:56;;;;;;;8.73;7.00;;;;;;;11.73;87.07;101310.06;10456268;28;20595;-66
2021/08/04 02:08:01;;;;;;;9.45;6.43;;;;;;;11.80;86.02;101303.59;10456474;28;20084;-66
2021/08/04 02:13:27;;;;;;;17.00;8.85;;;;;;;11.64;87.30;101303.56;10456759;28;20077;-66
2021/08/04 02:18:52;;;;;;;13.68;6.57;;;;;;;11.69;86.51;101300.69;10456380;28;20052;-69
2021/08/04 02:23:54;;;;;;;7.65;6.30;;;;;;;11.75;86.59;101296.88;10463368;28;20392;-66
2021/08/04 02:28:58;;;;;;;9.73;6.80;;;;;;;11.60;87.16;101302.03;10462887;28;20493;-65
2021/08/04 02:34:01;;;;;;;11.18;7.85;;;;;;;11.65;86.56;101292.16;10463276;28;20045;-66
2021/08/04 02:39:03;;;;;;;10.00;7.38;;;;;;;11.64;86.81;101293.06;10462772;28;20052;-66
2021/08/04 02:44:06;;;;;;;8.95;7.47;;;;;;;11.69;86.67;101295.44;10462972;28;20056;-68
2021/08/04 02:49:08;;;;;;;12.95;8.55;;;;;;;11.57;86.83;101288.25;10463302;28;20052;-65
2021/08/04 02:54:14;;;;;;;12.07;8.52;;;;;;;11.49;87.16;101286.88;10463316;28;20045;-66
2021/08/04 02:59:16;;;;;;;12.90;8.80;;;;;;;11.43;87.40;101286.34;10462101;28;20056;-66
2021/08/04 03:04:19;;;;;;;11.85;8.73;;;;;;;11.46;86.43;101286.19;10461496;28;20442;-66
2021/08/04 03:09:21;;;;;;;10.10;7.93;;;;;;;11.39;87.36;101290.06;10462441;28;20489;-65
2021/08/04 03:14:23;;;;;;;11.43;8.52;;;;;;;11.46;87.16;101287.03;10462756;28;20049;-66
2021/08/04 03:19:26;;;;;;;14.93;9.50;;;;;;;11.31;86.87;101282.59;10462631;28;20080;-65
2021/08/04 03:24:28;;;;;;;10.95;8.13;;;;;;;11.56;86.30;101284.75;10462984;28;20049;-68
2021/08/04 03:29:30;;;;;;;11.90;8.32;;;;;;;11.40;87.21;101291.75;10444273;28;20045;-65
2021/08/04 03:34:33;;;;;;;12.38;9.10;;;;;;;11.31;87.44;101287.84;10462119;28;20053;-65
2021/08/04 03:39:35;;;;;;;14.63;9.43;;;;;;;11.42;86.49;101282.88;10461571;28;20053;-65
2021/08/04 03:44:37;;;;;;;10.20;8.70;;;;;;;11.27;87.10;101288.94;10461445;28;20063;-67
2021/08/04 03:49:40;;;;;;;11.73;9.95;;;;;;;11.26;87.71;101292.47;10461060;28;20049;-67
2021/08/04 03:54:42;;;;;;;16.85;11.07;;;;;;;11.40;87.03;101290.00;10460021;28;20123;-65
2021/08/04 03:59:44;;;;;;;13.15;10.20;;;;;;;11.22;87.51;101296.19;10460593;28;20052;-65
2021/08/04 04:04:47;;;;;;;14.68;10.50;;;;;;;11.29;87.31;101294.94;10460485;28;20049;-65
2021/08/04 04:09:49;;;;;;;12.30;9.88;;;;;;;11.18;87.63;101302.50;10460392;28;20477;-65
2021/08/04 04:14:51;;;;;;;14.10;10.82;;;;;;;11.22;87.45;101298.81;10459110;28;20421;-64
2021/08/04 04:19:54;;;;;;;13.32;10.48;;;;;;;11.20;87.58;101305.94;10460326;28;20056;-66
2021/08/04 04:24:56;;;;;;;13.50;10.55;;;;;;;11.36;86.46;101311.19;10458989;28;20049;-65
2021/08/04 04:29:59;;;;;;;15.50;11.40;;;;;;;11.17;87.86;101317.41;10459525;28;20482;-66
2021/08/04 04:35:01;;;;;;;15.82;12.20;;;;;;;11.24;87.85;101318.75;10459443;28;20484;-65
2021/08/04 04:40:04;;;;;;;17.55;12.30;;;;;;;11.28;87.37;101314.22;10459529;28;20052;-65
2021/08/04 04:45:07;;;;;;;16.75;12.65;;;;;;;11.38;87.42;101320.69;10456812;28;20068;-65
2021/08/04 04:50:10;;;;;;;16.42;13.20;;;;;;;11.45;87.46;101322.06;10457861;28;20083;-67
2021/08/04 04:55:13;;;;;;;18.05;14.25;;;;;;;11.52;87.69;101318.16;10457498;28;20554;-65
2021/08/04 05:00:16;;;;;;;18.40;13.95;;;;;;;11.52;87.42;101330.44;10457333;28;20053;-65
2021/08/04 05:05:18;;;;;;;15.38;12.45;;;;;;;11.62;87.78;101331.66;10458130;28;20052;-68
2021/08/04 05:10:20;;;;;;;18.25;13.25;;;;;;;11.73;87.10;101327.59;10458518;28;20053;-68
2021/08/04 05:15:23;;;;;;;18.30;12.73;;;;;;;11.81;87.92;101335.91;10457620;28;20048;-65
2021/08/04 05:20:25;;;;;;;16.45;12.05;;;;;;;12.03;86.66;101338.25;10457437;28;20052;-65
2021/08/04 05:25:28;;;;;;;17.25;13.45;;;;;;;12.17;85.64;101335.72;10457818;28;20053;-66
2021/08/04 05:30:30;;;;;;;18.05;14.60;;;;;;;12.33;87.38;101337.47;10456555;28;20072;-68
2021/08/04 05:35:32;;;;;;;16.83;11.68;;;;;;;12.66;86.79;101334.72;10457354;28;20049;-65
2021/08/04 05:40:35;;;;;;;17.45;13.30;;;;;;;12.40;85.73;101342.28;10456524;28;20049;-66
2021/08/04 05:45:38;;;;;;;13.85;12.00;;;;;;;12.61;85.55;101342.03;10455682;28;20497;-64
2021/08/04 05:50:40;;;;;;;14.70;10.43;;;;;;;12.87;84.67;101351.00;10456717;28;20041;-67
2021/08/04 05:55:42;;;;;;;17.45;15.55;;;;;;;13.00;86.52;101353.78;10457073;28;20055;-65
2021/08/04 06:00:45;;;;;;;16.08;13.05;;;;;;;13.40;85.65;101359.31;10456687;28;20048;-66
2021/08/04 06:05:47;;;;;;;17.08;13.07;;;;;;;13.82;85.71;101346.25;10456397;28;20095;-67
2021/08/04 06:10:49;;;;;;;19.48;14.43;;;;;;;13.62;86.67;101356.22;10457626;28;20060;-65
2021/08/04 06:15:53;;;;;;;18.90;15.18;;;;;;;13.93;86.11;101359.59;10456342;28;20049;-65
2021/08/04 06:20:55;;;;;;;19.67;16.27;;;;;;;13.77;84.86;101353.56;10456188;28;20128;-67
2021/08/04 06:25:58;;;;;;;18.50;13.63;;;;;;;14.35;84.66;101359.59;10455996;28;20041;-66
2021/08/04 06:31:17;;;;;;;16.70;14.95;;;;;;;14.19;85.01;101357.94;10455976;28;20056;-67
2021/08/04 06:36:19;;;;;;;19.55;15.55;;;;;;;14.20;85.88;101358.78;10454440;28;20080;-65
2021/08/04 06:41:22;;;;;;;19.42;15.07;;;;;;;14.45;85.62;101350.97;10455918;28;20118;-65
2021/08/04 06:46:31;;;;;;;15.98;13.18;;;;;;;14.54;84.69;101344.28;10455768;28;20057;-66
2021/08/04 06:51:34;;;;;;;15.30;13.27;;;;;;;14.53;83.11;101344.41;10454464;28;20598;-67
2021/08/04 06:56:37;;;;;;;14.73;12.90;;;;;;;14.87;82.05;101345.66;10455884;28;20056;-67
2021/08/04 07:01:39;;;;;;;17.08;12.60;;;;;;;15.17;82.01;101348.03;10455671;28;20041;-66
2021/08/04 07:07:02;;;;;;;15.25;13.45;;;;;;;15.49;81.91;101347.59;10459088;28;20390;-67
2021/08/04 07:12:05;;;;;;;12.77;11.25;;;;;;;15.75;79.07;101355.50;10462201;28;20049;-66
2021/08/04 07:17:07;;;;;;;17.52;14.45;;;;;;;15.96;79.65;101358.44;10462375;28;20048;-67
2021/08/04 07:22:10;;;;;;;15.32;12.45;;;;;;;16.76;79.30;101355.28;10461493;28;20083;-69
2021/08/04 07:27:12;;;;;;;14.77;11.68;;;;;;;17.13;77.74;101355.19;10460630;28;20049;-68
2021/08/04 07:32:15;;;;;;;12.30;10.85;;;;;;;17.55;77.17;101354.59;10462313;28;20041;-66
2021/08/04 07:37:17;;;;;;;12.50;10.30;;;;;;;18.33;75.13;101355.53;10462098;28;20056;-65
2021/08/04 07:42:19;;;;;;;9.93;8.90;;;;;;;18.74;73.03;101354.78;10462081;28;20056;-65
2021/08/04 07:47:22;;;;;;;10.43;9.32;;;;;;;18.86;70.33;101352.94;10461029;28;20049;-67
2021/08/04 07:52:25;;;;;;;12.70;8.77;;;;;;;18.60;70.23;101347.09;10461557;28;20055;-69
2021/08/04 07:57:27;;;;;;;11.23;9.95;;;;;;;19.28;71.29;101344.09;10460784;28;20390;-67
2021/08/04 08:02:29;;;;;;;8.80;7.90;;;;;;;19.66;68.54;101342.59;10459576;28;20519;-69
2021/08/04 08:07:32;;;;;;;9.05;8.15;;;;;;;19.55;70.09;101350.66;10459166;28;20523;-68
2021/08/04 08:12:34;;;;;;;9.65;8.77;;;;;;;19.89;69.71;101351.25;10460401;28;20048;-66
2021/08/04 08:17:36;;;;;;;10.77;8.32;;;;;;;20.06;65.89;101354.22;10458713;28;20048;-69
2021/08/04 08:22:39;;;;;;;8.77;6.38;;;;;;;20.81;67.33;101344.78;10460561;28;20052;-67
2021/08/04 08:27:43;;;;;;;10.40;6.93;;;;;;;20.34;61.71;101341.94;10459612;28;20053;-66
2021/08/04 08:32:48;;;;;;;8.68;7.80;;;;;;;20.42;66.04;101328.78;10460287;28;20052;-66
2021/08/04 08:37:51;;;;;;;8.93;7.22;;;;;;;21.09;65.81;101326.25;10459538;28;20053;-64
2021/08/04 08:42:54;;;;;;;8.13;7.32;;;;;;;21.34;62.16;101322.94;10459021;28;20045;-67
2021/08/04 08:47:57;;;;;;;10.48;7.82;;;;;;;21.20;64.32;101323.41;10459063;28;20393;-67
2021/08/04 08:53:00;;;;;;;7.30;6.68;;;;;;;21.59;64.26;101319.81;10458961;28;20408;-65
2021/08/04 08:58:02;;;;;;;7.47;6.68;;;;;;;20.49;62.05;101318.44;10458973;28;20059;-68
2021/08/04 09:03:05;;;;;;;8.32;7.03;;;;;;;21.15;62.95;101321.19;10458376;28;20047;-68
2021/08/04 09:08:28;;;;;;;9.10;5.97;;;;;;;21.70;62.47;101314.25;10458196;28;20080;-68
2021/08/04 09:13:35;;;;;;;9.82;5.05;;;;;;;22.81;60.01;101306.84;10458215;28;20044;-67
2021/08/04 09:18:51;;;;;;;6.25;4.53;;;;;;;22.73;58.72;101309.47;10457894;28;20052;-66
2021/08/04 09:23:55;;;;;;;11.65;3.95;;;;;;;22.38;57.01;101310.34;10457458;28;20393;-67
2021/08/04 09:29:04;;;;;;;7.68;4.13;;;;;;;22.84;53.24;101305.69;10456930;28;20055;-64
2021/08/04 09:34:29;;;;;;;5.13;3.80;;;;;;;23.20;53.65;101308.31;10457015;28;20045;-67
2021/08/04 09:39:32;;;;;;;5.15;4.70;;;;;;;22.84;53.53;101305.69;10457120;28;20107;-67
2021/08/04 09:44:35;;;;;;;5.60;4.22;;;;;;;22.97;51.84;101295.44;10456818;28;20057;-64
2021/08/04 09:49:41;;;;;;;4.68;3.95;;;;;;;22.87;51.90;101301.88;10455322;28;20041;-64
2021/08/04 09:54:43;;;;;;;5.00;4.55;;;;;;;23.16;49.87;101301.59;10456674;28;20048;-67
2021/08/04 10:00:08;;;;;;;4.32;3.92;;;;;;;22.58;50.70;101289.66;10456381;28;20060;-66
2021/08/04 10:05:18;;;;;;;7.72;4.90;;;;;;;24.04;48.01;101298.63;10455324;28;20049;-66
2021/08/04 10:10:20;;;;;;;5.53;4.43;;;;;;;24.21;49.83;101301.28;10456128;28;20489;-66
2021/08/04 10:15:23;;;;;;;4.55;4.15;;;;;;;24.33;50.21;101293.81;10455025;28;20400;-68
2021/08/04 10:20:25;;;;;;;4.65;3.35;;;;;;;24.00;47.10;101305.28;10454771;28;20056;-67
2021/08/04 10:25:27;;;;;;;5.10;3.22;;;;;;;24.79;44.95;101289.59;10455869;28;20397;-67
2021/08/04 10:30:31;;;;;;;3.88;3.35;;;;;;;23.74;45.55;101290.16;10454773;28;20060;-66
2021/08/04 10:35:36;;;;;;;6.00;3.53;;;;;;;24.91;45.78;101283.91;10455797;28;20049;-66
2021/08/04 10:40:39;;;;;;;4.57;2.88;;;;;;;25.49;47.44;101280.06;10457356;28;20056;-67
2021/08/04 10:45:41;;;;;;;6.25;3.13;;;;;;;26.40;45.17;101287.56;10464614;28;20099;-68
2021/08/04 10:51:10;;;;;;;3.58;2.95;;;;;;;24.28;50.51;101279.06;10463465;28;20385;-66
2021/08/04 10:56:13;;;;;;;7.10;4.45;;;;;;;22.82;50.24;101278.31;10462441;28;20048;-68
2021/08/04 11:01:24;;;;;;;5.40;4.32;;;;;;;22.88;51.75;101279.53;10460452;28;20048;-69
2021/08/04 11:06:27;;;;;;;4.00;3.40;;;;;;;22.67;52.95;101271.88;10462180;28;20135;-67
2021/08/04 11:11:50;;;;;;;5.07;3.20;;;;;;;24.32;52.40;101274.22;10463125;28;20049;-65
2021/08/04 11:17:03;;;;;;;4.50;3.42;;;;;;;25.70;45.24;101266.03;10463226;28;20049;-65
2021/08/04 11:22:17;;;;;;;5.68;3.35;;;;;;;26.28;42.97;101257.63;10462398;28;20566;-66
2021/08/04 11:27:22;;;;;;;3.28;2.90;;;;;;;25.70;44.29;101257.16;10462602;28;20049;-65
2021/08/04 11:32:27;;;;;;;6.80;3.00;;;;;;;25.31;43.01;101261.53;10462266;28;20052;-68
2021/08/04 11:37:41;;;;;;;3.28;3.05;;;;;;;27.24;43.04;101247.09;10461626;28;20052;-67
2021/08/04 11:42:45;;;;;;;4.32;3.13;;;;;;;24.44;45.12;101245.28;10461558;28;20052;-66
2021/08/04 11:47:50;;;;;;;6.07;3.35;;;;;;;24.65;45.88;101248.31;10459760;28;20504;-67
2021/08/04 11:52:53;;;;;;;5.97;3.75;;;;;;;24.05;48.25;101243.28;10460186;28;20051;-67
2021/08/04 11:57:58;;;;;;;5.30;3.25;;;;;;;23.89;48.93;101241.44;10461066;28;20053;-67
2021/08/04 12:03:06;;;;;;;4.03;3.70;;;;;;;23.58;47.23;101251.84;10461108;28;20053;-65
2021/08/04 12:08:09;;;;;;;3.28;2.70;;;;;;;24.16;47.01;101236.75;10460712;28;20049;-68
2021/08/04 12:13:11;;;;;;;2.95;2.65;;;;;;;24.40;45.20;101234.09;10460465;28;20045;-68
2021/08/04 12:18:14;;;;;;;8.57;3.00;;;;;;;23.79;51.12;101238.00;10459517;28;20044;-65
2021/08/04 12:23:22;;;;;;;3.85;2.83;;;;;;;23.71;51.80;101234.34;10458964;28;20041;-67
2021/08/04 12:28:31;;;;;;;6.30;3.40;;;;;;;23.92;44.77;101228.56;10459105;28;20053;-66
2021/08/04 12:33:45;;;;;;;3.50;2.88;;;;;;;24.36;45.45;101229.22;10460103;28;20049;-67
2021/08/04 12:38:51;;;;;;;3.63;2.50;;;;;;;24.05;49.25;101219.22;10460013;28;20059;-65
2021/08/04 12:43:56;;;;;;;5.88;3.78;;;;;;;23.71;48.31;101222.81;10442309;28;20060;-64
2021/08/04 12:48:59;;;;;;;5.03;3.30;;;;;;;23.34;49.68;101222.19;10459572;28;20048;-64
2021/08/04 12:54:06;;;;;;;3.90;3.47;;;;;;;23.37;46.84;101218.38;10458879;28;20116;-67
2021/08/04 12:59:18;;;;;;;6.70;2.92;;;;;;;24.19;45.35;101218.56;10459165;28;20091;-69
2021/08/04 13:04:22;;;;;;;3.20;2.45;;;;;;;24.74;46.36;101210.81;10457990;28;20044;-68
2021/08/04 13:09:29;;;;;;;3.15;2.85;;;;;;;23.32;45.65;101218.03;10457975;28;20053;-69
2021/08/04 13:14:31;;;;;;;3.80;1.95;;;;;;;23.90;47.33;101208.34;10458263;28;20040;-68
2021/08/04 13:19:35;;;;;;;2.45;2.22;;;;;;;22.78;49.25;101204.91;10456825;28;20056;-66
2021/08/04 13:24:38;;;;;;;6.60;4.05;;;;;;;22.48;46.00;101203.53;10457785;28;20465;-65
2021/08/04 13:29:41;;;;;;;4.53;2.78;;;;;;;23.16;47.55;101200.09;10457471;28;20049;-64
2021/08/04 13:34:43;;;;;;;6.80;3.17;;;;;;;22.55;49.07;101191.25;10457411;28;20045;-67
2021/08/04 13:39:45;;;;;;;4.00;3.25;;;;;;;23.41;47.68;101194.84;10457449;28;20049;-65
2021/08/04 13:44:48;;;;;;;6.97;4.13;;;;;;;23.52;45.88;101199.91;10457038;28;20060;-65
2021/08/04 13:49:50;;;;;;;4.80;2.92;;;;;;;23.70;45.55;101197.06;10456587;28;20053;-65
2021/08/04 13:54:52;;;;;;;4.63;2.70;;;;;;;23.71;48.45;101188.06;10455562;28;20477;-66
2021/08/04 13:59:55;;;;;;;5.40;3.75;;;;;;;23.37;46.28;101187.16;10455969;28;20060;-67
2021/08/04 14:04:57;;;;;;;7.00;3.83;;;;;;;23.54;47.78;101184.53;10456924;28;20400;-67
2021/08/04 14:09:59;;;;;;;2.50;2.25;;;;;;;23.50;50.67;101192.03;10456461;28;20041;-66
2021/08/04 14:15:03;;;;;;;9.00;3.67;;;;;;;23.93;50.79;101187.44;10442313;28;20493;-66
2021/08/04 14:20:06;;;;;;;4.97;3.20;;;;;;;24.71;42.87;101182.53;10463762;28;20063;-64
2021/08/04 14:25:11;;;;;;;4.70;2.90;;;;;;;24.19;44.79;101174.91;10465158;28;20059;-66
2021/08/04 14:30:14;;;;;;;3.92;2.55;;;;;;;25.90;44.84;101169.03;10463343;28;20392;-67
2021/08/04 14:35:16;;;;;;;6.05;3.35;;;;;;;26.26;45.00;101169.25;10463371;28;20064;-66
2021/08/04 14:40:18;;;;;;;3.65;3.08;;;;;;;24.98;40.94;101180.44;10463810;28;20412;-63
2021/08/04 14:45:21;;;;;;;3.38;3.08;;;;;;;25.93;44.38;101174.03;10463665;28;20405;-64
2021/08/04 14:50:24;;;;;;;3.67;2.78;;;;;;;26.87;42.77;101158.38;10464083;28;20404;-66
2021/08/04 14:55:26;;;;;;;3.72;3.20;;;;;;;26.15;40.33;101153.59;10463728;28;20059;-68
2021/08/04 15:00:30;;;;;;;4.43;3.28;;;;;;;27.07;38.47;101160.50;10446794;28;20045;-66
2021/08/04 15:05:33;;;;;;;8.10;2.90;;;;;;;27.52;38.41;101165.75;10463137;28;20456;-66
2021/08/04 15:10:36;;;;;;;2.67;2.10;;;;;;;28.55;41.35;101155.44;10463387;28;20127;-66
2021/08/04 15:15:38;;;;;;;3.15;2.80;;;;;;;27.49;39.70;101153.53;10463008;28;20045;-65
2021/08/04 15:20:40;;;;;;;3.38;3.08;;;;;;;27.11;39.97;101148.31;10463368;28;20056;-66
2021/08/04 15:25:43;;;;;;;2.88;2.58;;;;;;;27.76;38.82;101151.13;10461871;28;20055;-65
2021/08/04 15:30:45;;;;;;;4.07;3.38;;;;;;;25.08;41.09;101154.28;10460740;28;20528;-65
2021/08/04 15:35:48;;;;;;;5.60;4.32;;;;;;;23.53;44.54;101146.25;10461785;28;20045;-67
2021/08/04 15:40:51;;;;;;;4.47;2.72;;;;;;;23.94;49.34;101148.19;10462151;28;20060;-65
2021/08/04 15:45:53;;;;;;;2.97;2.78;;;;;;;23.78;48.78;101135.59;10460687;28;20053;-66
2021/08/04 15:50:56;;;;;;;2.70;2.50;;;;;;;23.00;50.90;101128.75;10460096;28;20052;-65
2021/08/04 15:55:58;;;;;;;3.50;2.83;;;;;;;22.24;56.00;101131.16;10461100;28;20049;-66
2021/08/04 16:01:01;;;;;;;4.50;2.50;;;;;;;22.05;57.74;101131.34;10459748;28;20053;-65
2021/08/04 16:06:04;;;;;;;2.42;2.22;;;;;;;22.15;59.64;101128.59;10443020;28;20060;-67
2021/08/04 16:11:07;;;;;;;2.72;2.08;;;;;;;22.22;59.95;101126.97;10459153;28;20055;-64
2021/08/04 16:16:13;;;;;;;5.72;2.58;;;;;;;21.92;58.52;101114.91;10460191;28;20051;-66
2021/08/04 16:21:15;;;;;;;5.97;2.60;;;;;;;22.06;57.61;101115.19;10460834;28;20049;-66
2021/08/04 16:26:18;;;;;;;2.95;2.58;;;;;;;21.97;59.32;101117.97;10459860;28;20057;-68
2021/08/04 16:31:24;;;;;;;5.20;2.28;;;;;;;21.97;59.06;101108.16;10459843;28;20092;-64
2021/08/04 16:36:27;;;;;;;2.22;2.13;;;;;;;22.08;63.00;101099.06;10459156;28;20106;-64
2021/08/04 16:41:29;;;;;;;6.32;3.05;;;;;;;22.44;61.87;101098.97;10458912;28;20053;-66
2021/08/04 16:46:31;;;;;;;5.13;3.55;;;;;;;22.43;57.67;101081.31;10459443;28;20063;-66
2021/08/04 16:51:34;;;;;;;3.40;3.10;;;;;;;22.96;56.32;101095.34;10458741;28;20048;-67
2021/08/04 16:56:36;;;;;;;2.90;2.60;;;;;;;22.96;54.52;101084.66;10458949;28;20056;-69
2021/08/04 17:01:39;;;;;;;4.18;3.28;;;;;;;22.87;51.70;101083.00;10458004;28;20049;-64
2021/08/04 17:06:42;;;;;;;7.68;3.75;;;;;;;23.06;50.70;101072.03;10458423;28;20053;-68
2021/08/04 17:11:44;;;;;;;3.33;3.03;;;;;;;23.04;53.40;101073.19;10458464;28;20056;-67
2021/08/04 17:16:47;;;;;;;10.23;4.50;;;;;;;22.66;54.49;101086.06;10457811;28;20390;-65
2021/08/04 17:21:49;;;;;;;2.85;2.53;;;;;;;22.21;56.41;101090.66;10458084;28;20051;-65
2021/08/04 17:26:52;;;;;;;2.70;2.50;;;;;;;21.56;59.82;101083.00;10456044;28;20409;-69
2021/08/04 17:31:54;;;;;;;7.60;4.50;;;;;;;21.54;60.46;101080.47;10457722;28;20041;-66
2021/08/04 17:36:58;;;;;;;4.22;2.92;;;;;;;21.20;61.27;101078.47;10456243;28;20048;-65
2021/08/04 17:42:02;;;;;;;5.22;3.08;;;;;;;20.58;63.13;101081.69;10457773;28;20041;-65
2021/08/04 17:47:05;;;;;;;3.13;2.75;;;;;;;20.84;64.62;101091.69;10455751;28;20455;-67
2021/08/04 17:52:07;;;;;;;3.83;3.10;;;;;;;20.68;62.85;101094.13;10456285;28;20045;-65
2021/08/04 17:57:10;;;;;;;6.20;2.83;;;;;;;20.59;64.27;101099.34;10456831;28;20049;-65
2021/08/04 18:02:12;;;;;;;4.43;3.38;;;;;;;20.30;66.47;101094.13;10456512;28;20524;-67
2021/08/04 18:07:15;;;;;;;5.28;3.42;;;;;;;20.14;66.75;101101.84;10455332;28;20095;-64
2021/08/04 18:12:17;;;;;;;5.70;3.17;;;;;;;20.16;67.84;101097.25;10456732;28;20059;-68
2021/08/04 18:17:20;;;;;;;4.30;2.78;;;;;;;19.91;67.34;101096.03;10456057;28;20056;-67
2021/08/04 18:22:22;;;;;;;2.97;2.67;;;;;;;19.71;68.87;101101.31;10456522;28;20055;-66
2021/08/04 18:27:24;;;;;;;8.57;5.95;;;;;;;19.35;69.92;101103.69;10455458;28;20057;-67
2021/08/04 18:32:26;;;;;;;16.20;6.97;;;;;;;19.08;72.08;101113.13;10456409;28;20508;-65
2021/08/04 18:37:29;;;;;;;6.35;4.82;;;;;;;19.00;71.29;101109.47;10455654;28;20489;-68
2021/08/04 18:42:31;;;;;;;4.28;3.95;;;;;;;19.19;69.69;101111.34;10455780;28;20051;-67
2021/08/04 18:47:34;;;;;;;8.90;5.65;;;;;;;18.80;72.09;101117.34;10455722;28;20053;-67
2021/08/04 18:52:37;;;;;;;241.80;31.75;;;;;;;18.97;71.31;101121.19;10454628;28;20052;-65
2021/08/04 18:57:39;;;;;;;41.42;9.15;;;;;;;18.78;72.43;101129.91;10455280;28;20523;-66
2021/08/04 19:02:46;;;;;;;5.40;4.25;;;;;;;18.68;72.77;101134.31;10459569;28;20048;-67
2021/08/04 19:07:49;;;;;;;5.18;3.83;;;;;;;18.62;71.96;101134.84;10463702;28;20049;-67
2021/08/04 19:12:51;;;;;;;4.32;3.08;;;;;;;18.30;74.25;101135.78;10463427;28;20045;-66
2021/08/04 19:17:58;;;;;;;3.30;2.97;;;;;;;18.26;74.22;101145.81;10462597;28;20087;-66
2021/08/04 19:23:05;;;;;;;3.17;2.60;;;;;;;18.27;74.34;101144.81;10463348;28;20086;-66
2021/08/04 19:28:07;;;;;;;3.75;2.67;;;;;;;17.96;75.37;101146.56;10462328;28;20049;-67
2021/08/04 19:33:13;;;;;;;2.97;2.60;;;;;;;18.20;74.83;101152.44;10462619;28;20405;-64
2021/08/04 19:38:16;;;;;;;4.43;2.53;;;;;;;18.11;75.98;101155.06;10460903;28;20049;-66
2021/08/04 19:43:21;;;;;;;5.25;2.75;;;;;;;18.00;75.81;101156.78;10462158;28;20045;-68
2021/08/04 19:48:24;;;;;;;5.18;3.20;;;;;;;17.91;76.58;101148.75;10461489;28;20060;-67
2021/08/04 19:53:26;;;;;;;5.43;2.72;;;;;;;17.88;76.26;101146.34;10461745;28;20044;-64
2021/08/04 19:58:28;;;;;;;3.08;2.88;;;;;;;17.73;78.02;101149.25;10460159;28;20053;-66
2021/08/04 20:03:30;;;;;;;4.65;3.20;;;;;;;17.81;76.68;101160.06;10460104;28;20052;-65
2021/08/04 20:08:33;;;;;;;3.67;3.38;;;;;;;17.79;75.68;101155.88;10461049;28;20049;-66
2021/08/04 20:13:35;;;;;;;3.88;3.35;;;;;;;17.80;76.07;101166.34;10460507;28;20045;-67
2021/08/04 20:18:37;;;;;;;3.50;3.05;;;;;;;17.60;77.03;101167.97;10460533;28;20053;-67
2021/08/04 20:23:40;;;;;;;3.83;3.42;;;;;;;17.61;77.23;101174.09;10460494;28;20045;-67
2021/08/04 20:28:42;;;;;;;3.88;3.42;;;;;;;17.37;77.82;101176.94;10459965;28;20048;-68
2021/08/04 20:33:44;;;;;;;4.85;4.03;;;;;;;17.52;77.34;101172.22;10459980;28;20057;-66
2021/08/04 20:38:47;;;;;;;5.68;3.42;;;;;;;17.50;76.36;101167.03;10458576;28;20049;-65
2021/08/04 20:43:49;;;;;;;5.13;4.63;;;;;;;17.29;77.72;101172.25;10458809;28;20052;-67
2021/08/04 20:48:51;;;;;;;4.68;3.92;;;;;;;17.55;76.08;101166.66;10457718;28;20053;-66
2021/08/04 20:53:54;;;;;;;6.50;4.28;;;;;;;17.54;76.53;101176.41;10458497;28;20049;-66
2021/08/04 20:58:56;;;;;;;7.07;4.10;;;;;;;17.44;76.27;101176.31;10458357;28;20447;-66
2021/08/04 21:03:59;;;;;;;3.97;3.60;;;;;;;17.40;77.51;101181.97;10458772;28;20040;-65
2021/08/04 21:09:01;;;;;;;5.57;4.43;;;;;;;17.18;77.31;101185.47;10458609;28;20045;-67
2021/08/04 21:14:04;;;;;;;5.57;3.85;;;;;;;17.11;77.81;101190.41;10458185;28;20052;-66
2021/08/04 21:19:06;;;;;;;4.75;4.20;;;;;;;17.14;77.95;101179.59;10457886;28;20132;-66
2021/08/04 21:24:08;;;;;;;4.72;3.58;;;;;;;17.18;78.30;101175.75;10457759;28;20045;-65
2021/08/04 21:29:11;;;;;;;4.10;3.70;;;;;;;17.06;78.65;101189.94;10457504;28;20049;-67
2021/08/04 21:34:13;;;;;;;4.43;3.45;;;;;;;16.81;78.76;101183.03;10458117;28;20041;-65
2021/08/04 21:39:15;;;;;;;5.25;3.95;;;;;;;16.91;78.44;101181.38;10457219;28;20045;-66
2021/08/04 21:44:18;;;;;;;5.40;4.90;;;;;;;16.66;79.83;101182.41;10457308;28;20049;-67
2021/08/04 21:49:20;;;;;;;5.68;3.75;;;;;;;17.01;78.82;101181.50;10456690;28;20484;-65
2021/08/04 21:54:22;;;;;;;8.32;5.13;;;;;;;16.80;80.06;101181.38;10457781;28;20045;-64
2021/08/04 21:59:25;;;;;;;9.25;5.22;;;;;;;16.94;78.99;101178.50;10456943;28;20057;-66
2021/08/04 22:04:27;;;;;;;6.25;5.22;;;;;;;16.74;79.70;101171.25;10456593;28;20048;-66
2021/08/04 22:09:29;;;;;;;8.10;5.78;;;;;;;16.85;79.69;101173.97;10456349;28;20489;-65
2021/08/04 22:14:32;;;;;;;6.40;5.00;;;;;;;16.97;78.67;101165.06;10456850;28;20045;-65
2021/08/04 22:19:34;;;;;;;6.35;4.68;;;;;;;16.87;80.05;101169.38;10456429;28;20056;-67
2021/08/04 22:24:36;;;;;;;5.03;4.22;;;;;;;16.76;79.48;101167.56;10456236;28;20052;-66
2021/08/04 22:29:38;;;;;;;5.25;4.15;;;;;;;16.81;79.79;101164.53;10455852;28;20045;-64
2021/08/04 22:34:41;;;;;;;6.65;4.95;;;;;;;16.85;79.11;101163.38;10456306;28;20045;-66
2021/08/04 22:39:43;;;;;;;9.25;4.05;;;;;;;16.51;80.75;101158.88;10463473;28;20049;-65
2021/08/04 22:44:45;;;;;;;6.65;3.90;;;;;;;16.74;80.42;101158.88;10463912;28;20397;-65
2021/08/04 22:49:48;;;;;;;4.28;3.88;;;;;;;16.82;79.11;101145.06;10463996;28;20060;-65
2021/08/04 22:54:50;;;;;;;6.05;4.18;;;;;;;16.59;80.81;101147.69;10463837;28;20049;-63
2021/08/04 22:59:52;;;;;;;5.80;3.95;;;;;;;16.49;81.38;101139.66;10463627;28;20048;-66
2021/08/04 23:04:55;;;;;;;9.35;3.85;;;;;;;16.69;80.61;101148.69;10463288;28;20397;-66
2021/08/04 23:09:58;;;;;;;4.10;3.80;;;;;;;16.59;80.43;101133.63;10463536;28;20048;-65